createdAt,value
2022-09-14T00:00:41.421Z,16.01
2022-09-14T00:05:42.746Z,16.07
2022-09-14T00:10:45.462Z,16.12
2022-09-14T00:15:46.214Z,16.43
2022-09-14T00:20:47.353Z,16.18
2022-09-14T00:25:48.057Z,16.02
2022-09-14T00:30:48.823Z,16.16
2022-09-14T00:35:49.562Z,16.08
2022-09-14T00:40:57.938Z,16.22
2022-09-14T00:46:02.121Z,16.20
2022-09-14T00:51:02.986Z,16.06
2022-09-14T00:56:04.076Z,16.03
2022-09-14T01:01:04.958Z,15.99
2022-09-14T01:08:28.137Z,16.01
2022-09-14T01:13:55.196Z,15.95
2022-09-14T01:18:58.280Z,16.03
2022-09-14T01:27:21.666Z,15.79
2022-09-14T01:32:31.978Z,15.84
2022-09-14T01:39:03.741Z,15.80
2022-09-14T01:44:16.182Z,15.82
2022-09-14T01:49:29.416Z,15.87
2022-09-14T01:54:36.794Z,15.95
2022-09-14T01:59:43.308Z,16.00
2022-09-14T02:04:52.444Z,15.99
2022-09-14T02:09:54.683Z,15.99
2022-09-14T02:14:55.566Z,16.02
2022-09-14T02:19:59.809Z,16.00
2022-09-14T02:25:01.195Z,15.99
2022-09-14T02:30:03.431Z,15.98
2022-09-14T02:35:31.352Z,16.04
2022-09-14T02:41:03.451Z,16.01
2022-09-14T02:46:25.249Z,16.00
2022-09-14T02:51:55.106Z,15.99
2022-09-14T02:57:01.085Z,15.96
2022-09-14T03:02:01.997Z,15.87
2022-09-14T03:07:02.890Z,15.83
2022-09-14T03:12:04.007Z,15.83
2022-09-14T03:17:05.725Z,15.87
2022-09-14T03:22:06.469Z,15.78
2022-09-14T03:27:07.241Z,15.80
2022-09-14T03:32:10.594Z,15.74
2022-09-14T03:37:11.351Z,15.76
2022-09-14T03:42:12.112Z,15.74
2022-09-14T03:47:12.935Z,15.73
2022-09-14T03:52:13.709Z,15.84
2022-09-14T03:57:15.325Z,15.87
2022-09-14T04:02:16.343Z,15.90
2022-09-14T04:07:17.177Z,15.85
2022-09-14T04:12:17.928Z,15.80
2022-09-14T04:17:18.753Z,15.76
2022-09-14T04:22:19.559Z,15.76
2022-09-14T04:27:20.293Z,15.71
2022-09-14T04:32:21.533Z,15.67
2022-09-14T04:37:22.313Z,15.73
2022-09-14T04:42:23.679Z,15.66
2022-09-14T04:47:24.483Z,15.67
2022-09-14T04:52:25.473Z,15.65
2022-09-14T04:57:26.230Z,15.59
2022-09-14T05:02:27.226Z,15.52
2022-09-14T05:07:27.983Z,15.61
2022-09-14T05:12:29.441Z,15.59
2022-09-14T05:17:33.720Z,15.52
2022-09-14T05:22:34.458Z,15.53
2022-09-14T05:27:35.241Z,15.53
2022-09-14T05:32:35.992Z,15.52
2022-09-14T05:37:36.944Z,15.55
2022-09-14T05:42:37.679Z,15.54
2022-09-14T05:47:39.341Z,15.63
2022-09-14T05:52:40.270Z,15.53
2022-09-14T05:57:42.087Z,15.56
2022-09-14T06:02:47.711Z,15.61
2022-09-14T06:07:52.975Z,15.70
2022-09-14T06:12:55.605Z,15.59
2022-09-14T06:17:57.294Z,15.62
2022-09-14T06:22:58.045Z,15.62
2022-09-14T06:27:58.801Z,15.58
2022-09-14T06:32:59.636Z,15.56
2022-09-14T06:38:01.035Z,15.54
2022-09-14T06:43:01.805Z,15.60
2022-09-14T06:48:02.823Z,15.68
2022-09-14T06:53:03.547Z,15.71
2022-09-14T06:58:06.823Z,15.65
2022-09-14T07:03:08.136Z,15.74
2022-09-14T07:08:12.213Z,15.88
2022-09-14T07:13:13.340Z,15.92
2022-09-14T07:18:14.825Z,15.99
2022-09-14T07:23:15.630Z,15.99
2022-09-14T07:28:16.387Z,16.08
2022-09-14T07:33:17.130Z,15.96
2022-09-14T07:38:35.601Z,16.00
2022-09-14T07:43:55.855Z,15.93
2022-09-14T07:48:59.615Z,15.88
2022-09-14T07:54:00.954Z,15.93
2022-09-14T08:04:35.318Z,16.03
2022-09-14T08:09:38.743Z,16.00
2022-09-14T08:14:39.424Z,16.09
2022-09-14T08:19:40.535Z,16.07
2022-09-14T08:24:41.798Z,16.13
2022-09-14T08:29:42.506Z,16.29
2022-09-14T08:34:43.238Z,16.37
2022-09-14T08:39:49.528Z,16.44
2022-09-14T08:44:58.677Z,16.43
2022-09-14T08:50:38.198Z,16.58
2022-09-14T08:55:49.749Z,16.81
2022-09-14T09:02:39.367Z,16.73
2022-09-14T09:08:26.084Z,16.84
2022-09-14T09:13:32.372Z,16.94
2022-09-14T09:18:47.158Z,16.95
2022-09-14T09:23:48.377Z,17.06
2022-09-14T09:28:52.518Z,16.97
2022-09-14T09:33:53.581Z,16.96
2022-09-14T09:39:01.717Z,17.00
2022-09-14T09:44:10.592Z,16.85
2022-09-14T09:49:24.901Z,16.76
2022-09-14T09:54:31.564Z,16.86
2022-09-14T09:59:45.779Z,16.88
2022-09-14T10:11:37.145Z,16.93
2022-09-14T10:16:41.949Z,17.31
2022-09-14T10:22:47.102Z,17.40
2022-09-14T10:27:59.889Z,17.61
2022-09-14T10:33:07.899Z,17.73
2022-09-14T10:38:57.753Z,17.88
2022-09-14T10:47:55.195Z,18.36
2022-09-14T10:54:50.297Z,18.67
2022-09-14T11:00:44.536Z,18.55
2022-09-14T11:06:26.342Z,18.49
2022-09-14T11:13:20.456Z,18.49
2022-09-14T11:18:42.616Z,18.54
2022-09-14T11:23:53.592Z,18.51
2022-09-14T11:29:03.371Z,18.62
2022-09-14T11:34:20.576Z,18.67
2022-09-14T11:39:31.348Z,18.78
2022-09-14T11:44:38.738Z,19.03
2022-09-14T11:50:28.052Z,19.18
2022-09-14T11:55:30.108Z,19.01
2022-09-14T12:00:45.541Z,18.93
2022-09-14T12:05:49.154Z,18.79
2022-09-14T12:11:01.699Z,18.71
2022-09-14T12:16:07.760Z,18.68
2022-09-14T12:21:24.976Z,18.52
2022-09-14T12:26:31.495Z,18.30
2022-09-14T12:32:25.732Z,18.21
2022-09-14T12:37:30.810Z,18.16
2022-09-14T12:42:31.632Z,18.18
2022-09-14T12:47:49.138Z,18.28
2022-09-14T12:53:24.174Z,18.42
2022-09-14T12:58:50.549Z,18.49
2022-09-14T13:03:55.107Z,18.39
2022-09-14T13:08:58.777Z,18.36
2022-09-14T13:14:01.262Z,18.33
2022-09-14T13:19:05.426Z,18.26
2022-09-14T13:24:30.429Z,18.17
2022-09-14T13:29:31.488Z,18.10
2022-09-14T13:34:36.249Z,18.11
2022-09-14T13:39:41.093Z,18.00
2022-09-14T13:44:47.140Z,18.09
2022-09-14T13:49:51.055Z,17.93
2022-09-14T13:56:25.810Z,17.91
2022-09-14T14:01:28.695Z,18.05
2022-09-14T14:06:34.059Z,18.10
2022-09-14T14:11:38.903Z,18.18
2022-09-14T14:16:40.268Z,18.19
2022-09-14T14:21:41.146Z,18.23
2022-09-14T14:26:50.588Z,18.24
2022-09-14T14:31:54.383Z,18.32
2022-09-14T14:36:55.459Z,18.34
2022-09-14T14:41:57.841Z,18.30
2022-09-14T14:46:58.823Z,18.38
2022-09-14T14:51:59.622Z,18.41
2022-09-14T14:57:01.410Z,18.51
2022-09-14T15:02:04.397Z,18.61
2022-09-14T15:07:05.162Z,18.61
2022-09-14T15:12:06.228Z,18.61
2022-09-14T15:17:08.113Z,18.63
2022-09-14T15:22:09.652Z,18.59
2022-09-14T15:27:10.457Z,18.62
2022-09-14T15:32:11.384Z,18.70
2022-09-14T15:37:12.168Z,18.73
2022-09-14T15:42:13.382Z,18.92
2022-09-14T15:47:15.247Z,18.96
2022-09-14T15:52:16.054Z,18.92
2022-09-14T15:57:16.880Z,19.06
2022-09-14T16:02:19.750Z,19.06
2022-09-14T16:07:20.659Z,18.95
2022-09-14T16:12:21.715Z,18.87
2022-09-14T16:17:22.544Z,18.71
2022-09-14T16:22:24.442Z,17.90
2022-09-14T16:27:25.186Z,17.00
2022-09-14T16:32:25.976Z,16.62
2022-09-14T16:37:26.718Z,16.40
2022-09-14T16:42:27.580Z,16.29
2022-09-14T16:47:28.719Z,16.15
2022-09-14T16:52:29.516Z,16.02
2022-09-14T16:57:30.263Z,15.93
2022-09-14T17:02:31.161Z,15.92
2022-09-14T17:07:31.896Z,15.96
2022-09-14T17:12:32.776Z,15.91
2022-09-14T17:17:33.558Z,15.92
2022-09-14T17:22:34.386Z,15.89
2022-09-14T17:27:35.680Z,15.88
2022-09-14T17:32:36.472Z,15.91
2022-09-14T17:37:37.185Z,15.88
2022-09-14T17:42:38.681Z,15.84
2022-09-14T17:47:39.423Z,15.88
2022-09-14T17:52:40.184Z,15.78
2022-09-14T17:57:41.750Z,15.82
2022-09-14T18:02:42.611Z,15.72
2022-09-14T18:07:43.389Z,15.85
2022-09-14T18:12:45.371Z,15.85
2022-09-14T18:17:46.146Z,15.87
2022-09-14T18:22:46.998Z,15.82
2022-09-14T18:27:47.741Z,15.79
2022-09-14T18:32:48.528Z,15.86
2022-09-14T18:37:49.260Z,15.72
2022-09-14T18:42:50.174Z,15.93
2022-09-14T18:47:50.924Z,15.91
2022-09-14T18:52:52.307Z,15.83
2022-09-14T18:57:53.065Z,15.96
2022-09-14T19:02:55.898Z,15.81
2022-09-14T19:07:56.874Z,15.77
2022-09-14T19:12:57.775Z,15.72
2022-09-14T19:17:59.011Z,15.71
2022-09-14T19:22:59.772Z,15.64
2022-09-14T19:28:00.894Z,15.59
2022-09-14T19:33:02.257Z,15.53
2022-09-14T19:38:03.000Z,15.51
2022-09-14T19:43:04.135Z,15.49
2022-09-14T19:48:05.205Z,15.50
2022-09-14T19:53:06.263Z,15.52
2022-09-14T19:58:07.113Z,15.52
2022-09-14T20:03:08.673Z,15.48
2022-09-14T20:08:09.653Z,15.46
2022-09-14T20:13:10.620Z,15.42
2022-09-14T20:18:11.377Z,15.46
2022-09-14T20:23:12.308Z,15.38
2022-09-14T20:28:13.265Z,15.37
2022-09-14T20:33:14.090Z,15.37
2022-09-14T20:38:14.903Z,15.48
2022-09-14T20:43:15.758Z,15.51
2022-09-14T20:48:16.742Z,15.56
2022-09-14T20:53:17.733Z,15.56
2022-09-14T20:58:18.636Z,15.44
2022-09-14T21:03:19.825Z,15.46
2022-09-14T21:08:21.382Z,15.55
2022-09-14T21:13:23.072Z,15.63
2022-09-14T21:18:23.845Z,15.71
2022-09-14T21:23:24.614Z,15.70
2022-09-14T21:28:26.265Z,15.67
2022-09-14T21:33:26.993Z,15.54
2022-09-14T21:38:27.792Z,15.67
2022-09-14T21:43:28.948Z,15.69
2022-09-14T21:48:29.766Z,15.66
2022-09-14T21:53:31.446Z,15.67
2022-09-14T21:58:32.615Z,15.74
2022-09-14T22:03:34.234Z,15.76
2022-09-14T22:08:36.214Z,15.74
2022-09-14T22:13:37.917Z,15.81
2022-09-14T22:18:41.074Z,15.76
2022-09-14T22:23:41.952Z,15.79
2022-09-14T22:28:42.736Z,15.79
2022-09-14T22:33:43.552Z,15.70
2022-09-14T22:38:45.681Z,15.54
2022-09-14T22:43:47.002Z,15.49
2022-09-14T22:48:49.723Z,15.46
2022-09-14T22:53:50.906Z,15.50
2022-09-14T22:58:52.659Z,15.53
2022-09-14T23:03:56.640Z,15.53
2022-09-14T23:08:59.666Z,15.62
2022-09-14T23:14:00.981Z,15.61
2022-09-14T23:19:04.145Z,15.61
2022-09-14T23:24:06.523Z,15.68
2022-09-14T23:29:11.879Z,15.74
2022-09-14T23:34:13.039Z,15.74
2022-09-14T23:39:13.888Z,15.66
2022-09-14T23:44:15.025Z,15.65
2022-09-14T23:49:15.830Z,15.64
2022-09-14T23:54:16.697Z,15.56
2022-09-14T23:59:17.574Z,15.47
